首页
METAR-TAF:

METAR-TAF

机场 :

安托諾夫機場

Hostomel, 乌克兰

纬度: 50-36-01N, 经度: 030-11-37E, 海拔: 157米

当前天气观测

该预报发布于20分钟前的22:30 UTC
风速8节,风向南转南东
温度 1°C
湿度 100%
气压 1021 hPa
能見度: 6000

METAR: UKKM 112230Z AUTO 15004MPS 6000 // ///004/// 01/01 Q1021

时间: 00:50 (22:50 UTC)

预报

该预报发布于11小时和45分钟前的11:05 UTC
预报有效从11日的 12点(UTC)到 12日的 12点(UTC)
风速2节,风向多变
能見度: 4000
阴天层高于700英尺
轻雾
短暂存在
从 11日的 12点(UTC)到 11日的 15点(UTC)
能見度: 2000
阴天层高于500英尺
轻雾
成为
从 11日的 15点(UTC)到 11日的 17点(UTC)
风速8节,风向东转东南
能見度: 2000
阴天层高于500英尺
轻雾
短暂存在
从 11日的 17点(UTC)到 12日的 06点(UTC)
能見度: 0300
层高于100英尺

TAF: UKKM 111105Z 1112/1212 VRB01MPS 4000 BR OVC007 TX04/1212Z TN00/1205Z TEMPO 1112/1115 2000 BR OVC005 BECMG 1115/1117 11004MPS 2000 BR OVC005 TEMPO 1117/1206 0300 FG VV001

超过4000个机场的气象观测和天气预报(METAR&TAF报告)。

可查询的气象台以黄色和红色小点在地图上表示。

将鼠标移到小点上方,可查看气象台名称。

然后点击查看天气观测和预报。

如需切换地图:点击带黑十字的绿色按钮放大地图;点击带横线的绿色按钮缩小地图;或者点击绿色箭头查看邻近地区的地图。


METAR-TAF: